createdAt,value
2023-05-19T00:00:51.145Z,70.35
2023-05-19T00:01:53.323Z,70.27
2023-05-19T00:02:57.112Z,70.03
2023-05-19T00:04:02.726Z,69.73
2023-05-19T00:05:05.207Z,70.45
2023-05-19T00:06:10.723Z,70.89
2023-05-19T00:07:14.486Z,70.97
2023-05-19T00:08:17.491Z,71.44
2023-05-19T00:09:20.142Z,72.10
2023-05-19T00:10:22.016Z,72.49
2023-05-19T00:11:25.522Z,72.09
2023-05-19T00:12:27.369Z,71.72
2023-05-19T00:13:29.680Z,71.71
2023-05-19T00:14:31.536Z,71.83
2023-05-19T00:15:33.724Z,71.79
2023-05-19T00:16:37.910Z,72.42
2023-05-19T00:17:42.438Z,72.38
2023-05-19T00:18:44.201Z,72.12
2023-05-19T00:19:45.964Z,72.82
2023-05-19T00:20:47.565Z,72.76
2023-05-19T00:21:49.293Z,73.56
2023-05-19T00:22:51.476Z,73.94
2023-05-19T00:23:54.645Z,73.47
2023-05-19T00:24:56.453Z,73.11
2023-05-19T00:25:58.116Z,73.06
2023-05-19T00:26:59.855Z,72.86
2023-05-19T00:28:02.528Z,72.78
2023-05-19T00:29:04.578Z,72.70
2023-05-19T00:30:07.248Z,72.09
2023-05-19T00:31:08.905Z,72.39
2023-05-19T00:32:10.591Z,72.34
2023-05-19T00:33:12.563Z,71.83
2023-05-19T00:34:14.399Z,72.13
2023-05-19T00:35:16.505Z,71.45
2023-05-19T00:36:18.321Z,71.65
2023-05-19T00:37:20.582Z,71.91
2023-05-19T00:38:22.239Z,71.97
2023-05-19T00:39:23.976Z,72.45
2023-05-19T00:40:25.934Z,72.57
2023-05-19T00:41:27.613Z,73.02
2023-05-19T00:42:29.444Z,73.64
2023-05-19T00:43:31.501Z,73.02
2023-05-19T00:44:33.354Z,72.85
2023-05-19T00:45:35.633Z,72.50
2023-05-19T00:46:37.996Z,72.03
2023-05-19T00:47:39.709Z,72.30
2023-05-19T00:48:44.579Z,72.77
2023-05-19T00:49:46.270Z,73.01
2023-05-19T00:50:49.184Z,72.49
2023-05-19T00:51:50.802Z,73.04
2023-05-19T00:52:52.644Z,73.16
2023-05-19T00:53:54.368Z,72.88
2023-05-19T00:54:56.413Z,72.62
2023-05-19T00:56:00.000Z,72.54
2023-05-19T00:57:01.757Z,72.96
2023-05-19T00:58:05.422Z,72.43
2023-05-19T00:59:08.053Z,73.02
2023-05-19T01:00:11.196Z,72.21
2023-05-19T01:01:14.626Z,72.21
2023-05-19T01:02:16.433Z,71.97
2023-05-19T01:04:25.545Z,71.32
2023-05-19T01:05:27.219Z,71.62
2023-05-19T01:06:29.593Z,71.86
2023-05-19T01:07:31.310Z,71.57
2023-05-19T01:08:34.336Z,71.09
2023-05-19T01:09:37.322Z,70.97
2023-05-19T01:10:39.120Z,70.64
2023-05-19T01:11:40.868Z,71.24
2023-05-19T01:12:42.630Z,71.85
2023-05-19T01:13:44.476Z,72.14
2023-05-19T01:14:46.387Z,71.59
2023-05-19T01:16:32.388Z,71.65
2023-05-19T01:17:49.399Z,71.47
2023-05-19T01:18:56.196Z,71.55
2023-05-19T01:20:10.969Z,72.36
2023-05-19T01:21:36.466Z,72.89
2023-05-19T01:22:57.246Z,72.82
2023-05-19T01:24:17.891Z,73.14
2023-05-19T01:25:44.647Z,73.49
2023-05-19T01:27:08.107Z,73.04
2023-05-19T01:28:38.524Z,73.17
2023-05-19T01:29:57.424Z,72.78
2023-05-19T01:31:00.672Z,75.45
2023-05-19T01:32:04.825Z,73.19
2023-05-19T01:33:09.938Z,72.59
2023-05-19T01:34:16.371Z,72.54
2023-05-19T01:35:19.223Z,72.75
2023-05-19T01:36:23.478Z,72.84
2023-05-19T01:37:26.794Z,72.59
2023-05-19T01:38:29.771Z,72.62
2023-05-19T01:39:33.487Z,72.80
2023-05-19T01:40:37.209Z,72.63
2023-05-19T01:41:41.714Z,72.90
2023-05-19T01:42:45.471Z,73.52
2023-05-19T01:43:48.728Z,73.49
2023-05-19T01:44:52.050Z,73.57
2023-05-19T01:45:55.067Z,73.33
2023-05-19T01:46:57.073Z,73.19
2023-05-19T01:48:01.836Z,73.39
2023-05-19T01:49:04.559Z,73.95
2023-05-19T01:50:06.924Z,73.75
2023-05-19T01:51:08.792Z,74.53
2023-05-19T01:52:10.469Z,74.23
2023-05-19T01:53:12.335Z,73.84
2023-05-19T01:54:14.039Z,73.58
2023-05-19T01:55:15.969Z,73.07
2023-05-19T01:56:38.349Z,72.91
2023-05-19T01:58:03.294Z,73.02
2023-05-19T01:59:23.996Z,72.83
2023-05-19T02:00:47.493Z,73.48
2023-05-19T02:01:57.052Z,73.01
2023-05-19T02:03:01.775Z,72.89
2023-05-19T02:04:28.702Z,73.18
2023-05-19T02:05:38.441Z,72.58
2023-05-19T02:06:58.687Z,73.22
2023-05-19T02:08:19.568Z,72.99
2023-05-19T02:09:39.820Z,73.23
2023-05-19T02:10:45.602Z,72.77
2023-05-19T02:11:55.403Z,72.54
2023-05-19T02:13:01.499Z,72.88
2023-05-19T02:14:16.057Z,72.72
2023-05-19T02:15:21.483Z,73.00
2023-05-19T02:16:29.327Z,72.89
2023-05-19T02:17:33.338Z,72.68
2023-05-19T02:18:35.925Z,72.64
2023-05-19T02:19:40.023Z,72.81
2023-05-19T02:20:42.593Z,73.00
2023-05-19T02:21:44.312Z,73.19
2023-05-19T02:22:46.028Z,73.43
2023-05-19T02:23:48.760Z,74.26
2023-05-19T02:24:51.792Z,74.22
2023-05-19T02:25:53.749Z,74.29
2023-05-19T02:26:55.552Z,74.41
2023-05-19T02:27:58.777Z,74.01
2023-05-19T02:29:00.413Z,74.11
2023-05-19T02:30:03.535Z,74.88
2023-05-19T02:31:10.054Z,74.21
2023-05-19T02:32:11.940Z,74.13
2023-05-19T02:33:15.081Z,74.32
2023-05-19T02:34:18.121Z,73.90
2023-05-19T02:35:21.022Z,73.72
2023-05-19T02:36:22.827Z,73.56
2023-05-19T02:37:28.747Z,73.62
2023-05-19T02:38:30.425Z,73.46
2023-05-19T02:39:35.203Z,73.54
2023-05-19T02:40:37.373Z,73.52
2023-05-19T02:41:39.467Z,73.58
2023-05-19T02:42:41.283Z,73.22
2023-05-19T02:43:42.932Z,73.08
2023-05-19T02:44:44.912Z,73.32
2023-05-19T02:45:47.125Z,73.52
2023-05-19T02:46:49.009Z,74.20
2023-05-19T02:47:50.775Z,74.64
2023-05-19T02:48:52.648Z,74.82
2023-05-19T02:49:54.850Z,74.96
2023-05-19T02:50:56.916Z,76.43
2023-05-19T02:51:58.814Z,76.71
2023-05-19T02:53:00.507Z,76.75
2023-05-19T02:54:02.145Z,77.10
2023-05-19T02:55:04.331Z,78.02
2023-05-19T02:56:06.216Z,77.67
2023-05-19T02:57:07.896Z,77.66
2023-05-19T02:58:09.736Z,77.84
2023-05-19T02:59:11.561Z,77.18
2023-05-19T03:00:13.749Z,77.55
2023-05-19T03:01:16.527Z,77.30
2023-05-19T03:02:18.609Z,77.41
2023-05-19T03:03:20.587Z,77.70
2023-05-19T03:04:22.425Z,78.56
2023-05-19T03:05:24.156Z,78.75
2023-05-19T03:06:25.932Z,78.39
2023-05-19T03:07:27.821Z,78.48
2023-05-19T03:08:29.560Z,78.89
2023-05-19T03:09:31.418Z,78.95
2023-05-19T03:10:33.455Z,78.72
2023-05-19T03:11:35.714Z,78.91
2023-05-19T03:12:37.973Z,78.74
2023-05-19T03:13:39.728Z,78.41
2023-05-19T03:14:41.463Z,78.00
2023-05-19T03:15:43.288Z,77.75
2023-05-19T03:16:45.252Z,78.19
2023-05-19T03:17:47.246Z,78.63
2023-05-19T03:18:49.066Z,79.96
2023-05-19T03:19:51.284Z,80.09
2023-05-19T03:20:54.032Z,80.12
2023-05-19T03:21:56.500Z,80.31
2023-05-19T03:22:58.523Z,80.16
2023-05-19T03:24:01.208Z,80.04
2023-05-19T03:25:03.484Z,80.51
2023-05-19T03:26:05.388Z,80.58
2023-05-19T03:27:07.101Z,79.74
2023-05-19T03:28:08.926Z,79.93
2023-05-19T03:29:10.593Z,80.04
2023-05-19T03:30:13.440Z,79.21
2023-05-19T03:31:28.508Z,78.91
2023-05-19T03:32:30.263Z,78.96
2023-05-19T03:33:32.040Z,78.13
2023-05-19T03:34:33.947Z,78.60
2023-05-19T03:35:35.891Z,78.27
2023-05-19T03:36:39.462Z,78.31
2023-05-19T03:37:45.417Z,78.89
2023-05-19T03:38:47.126Z,79.15
2023-05-19T03:39:49.152Z,79.14
2023-05-19T03:40:51.055Z,79.57
2023-05-19T03:41:52.746Z,79.18
2023-05-19T03:42:54.604Z,79.07
2023-05-19T03:43:56.461Z,78.75
2023-05-19T03:44:58.120Z,79.22
2023-05-19T03:45:59.957Z,79.26
2023-05-19T03:47:20.152Z,79.35
2023-05-19T03:48:38.686Z,79.60
2023-05-19T03:50:03.601Z,79.58
2023-05-19T03:51:18.136Z,78.91
2023-05-19T03:52:21.691Z,78.62
2023-05-19T03:53:35.068Z,78.24
2023-05-19T03:54:39.563Z,78.32
2023-05-19T03:55:41.296Z,78.31
2023-05-19T03:56:43.519Z,78.01
2023-05-19T03:57:45.206Z,78.01
2023-05-19T03:58:48.449Z,78.05
2023-05-19T03:59:50.155Z,78.06
2023-05-19T04:00:51.754Z,79.22
2023-05-19T04:01:53.777Z,79.36
2023-05-19T04:02:55.623Z,79.40
2023-05-19T04:03:57.475Z,79.71
2023-05-19T04:04:59.290Z,79.29
2023-05-19T04:06:00.962Z,79.24
2023-05-19T04:07:02.715Z,79.38
2023-05-19T04:08:04.448Z,79.65
2023-05-19T04:09:12.834Z,79.49
2023-05-19T04:10:14.616Z,79.42
2023-05-19T04:11:16.425Z,79.64
2023-05-19T04:12:18.280Z,79.37
2023-05-19T04:13:21.499Z,78.92
2023-05-19T04:14:23.579Z,78.77
2023-05-19T04:15:26.032Z,78.88
2023-05-19T04:16:27.881Z,78.95
2023-05-19T04:17:29.727Z,79.28
2023-05-19T04:18:31.560Z,79.56
2023-05-19T04:19:33.672Z,79.05
2023-05-19T04:20:36.762Z,79.50
2023-05-19T04:21:38.861Z,79.66
2023-05-19T04:22:40.478Z,79.96
2023-05-19T04:23:42.080Z,80.13
2023-05-19T04:24:43.891Z,80.19
2023-05-19T04:25:48.629Z,80.05
2023-05-19T04:26:50.847Z,80.34
2023-05-19T04:27:53.027Z,80.31
2023-05-19T04:28:56.872Z,79.68
2023-05-19T04:29:59.536Z,80.03
2023-05-19T04:31:01.644Z,80.11
2023-05-19T04:32:07.919Z,80.26
2023-05-19T04:33:10.384Z,80.42
2023-05-19T04:34:12.418Z,80.09
2023-05-19T04:35:15.406Z,80.08
2023-05-19T04:36:21.325Z,79.74
2023-05-19T04:37:25.867Z,79.27
2023-05-19T04:38:29.929Z,79.66
2023-05-19T04:39:32.134Z,79.12
2023-05-19T04:40:34.738Z,78.76
2023-05-19T04:41:36.530Z,78.83
2023-05-19T04:42:45.812Z,78.52
2023-05-19T04:43:50.065Z,78.88
2023-05-19T04:44:53.621Z,78.31
2023-05-19T04:45:58.483Z,78.56
2023-05-19T04:47:00.807Z,78.51
2023-05-19T04:48:02.755Z,78.32
2023-05-19T04:49:04.765Z,77.97
2023-05-19T04:50:07.482Z,78.36
2023-05-19T04:51:09.565Z,78.80
2023-05-19T04:52:11.668Z,79.85
2023-05-19T04:53:15.724Z,79.63
2023-05-19T04:54:18.057Z,79.47
2023-05-19T04:55:20.690Z,79.36
2023-05-19T04:56:24.400Z,79.81
2023-05-19T04:57:26.235Z,80.11
2023-05-19T04:58:27.857Z,79.77
2023-05-19T04:59:29.890Z,80.04
2023-05-19T05:00:32.183Z,80.40
2023-05-19T05:01:40.908Z,80.83
2023-05-19T05:02:45.542Z,80.68
2023-05-19T05:03:48.344Z,80.96
2023-05-19T05:04:50.761Z,80.12
2023-05-19T05:05:52.541Z,80.77
2023-05-19T05:06:54.491Z,80.53
2023-05-19T05:07:57.580Z,80.37
2023-05-19T05:09:03.951Z,80.09
2023-05-19T05:10:07.263Z,80.50
2023-05-19T05:11:09.465Z,80.80
2023-05-19T05:12:12.530Z,80.69
2023-05-19T05:13:15.609Z,81.12
2023-05-19T05:14:18.512Z,80.86
2023-05-19T05:15:24.942Z,80.61
2023-05-19T05:16:27.309Z,79.83
2023-05-19T05:17:30.327Z,79.80
2023-05-19T05:18:33.622Z,80.35
2023-05-19T05:19:36.001Z,80.62
2023-05-19T05:20:38.977Z,80.99
2023-05-19T05:21:41.765Z,80.68
2023-05-19T05:22:44.383Z,80.60
2023-05-19T05:23:46.976Z,80.56
2023-05-19T05:24:49.496Z,80.64
2023-05-19T05:25:51.707Z,80.16
2023-05-19T05:26:53.988Z,80.07
2023-05-19T05:27:55.886Z,80.23
2023-05-19T05:28:58.502Z,80.88
2023-05-19T05:30:00.609Z,80.78
2023-05-19T05:31:03.734Z,81.09
2023-05-19T05:32:06.017Z,81.26
2023-05-19T05:33:08.854Z,81.64
2023-05-19T05:34:13.641Z,81.50
2023-05-19T05:35:15.585Z,80.98
2023-05-19T05:36:17.841Z,80.89
2023-05-19T05:37:19.706Z,80.96
2023-05-19T05:38:21.534Z,81.42
2023-05-19T05:39:23.899Z,81.30
2023-05-19T05:40:25.624Z,81.54
2023-05-19T05:41:34.976Z,81.94
2023-05-19T05:42:40.488Z,81.83
2023-05-19T05:43:42.377Z,81.43
2023-05-19T05:44:44.035Z,81.46
2023-05-19T05:45:45.837Z,81.26
2023-05-19T05:46:48.197Z,81.56
2023-05-19T05:47:50.935Z,82.10
2023-05-19T05:48:52.891Z,81.95
2023-05-19T05:49:54.924Z,82.05
2023-05-19T05:50:57.408Z,81.75
2023-05-19T05:52:06.252Z,81.76
2023-05-19T05:53:19.245Z,81.84
2023-05-19T05:54:23.294Z,81.26
2023-05-19T05:55:26.540Z,81.18
2023-05-19T05:56:28.774Z,81.14
2023-05-19T05:57:30.764Z,80.73
2023-05-19T05:58:35.799Z,80.86
2023-05-19T05:59:40.696Z,80.88
2023-05-19T06:00:43.787Z,80.58
2023-05-19T06:01:46.121Z,80.52
2023-05-19T06:02:51.309Z,80.51
2023-05-19T06:03:54.123Z,80.36
2023-05-19T06:04:58.320Z,80.21
2023-05-19T06:06:00.498Z,80.44
2023-05-19T06:07:04.827Z,80.24
2023-05-19T06:08:10.071Z,80.65
2023-05-19T06:09:12.442Z,80.76
2023-05-19T06:10:14.267Z,80.08
2023-05-19T06:11:16.355Z,80.33
2023-05-19T06:12:18.042Z,79.71
2023-05-19T06:13:24.083Z,79.32
2023-05-19T06:14:25.965Z,79.94
2023-05-19T06:15:46.231Z,79.43
2023-05-19T06:16:57.384Z,79.65
2023-05-19T06:17:59.260Z,79.48
2023-05-19T06:19:01.378Z,79.77
2023-05-19T06:20:05.701Z,80.37
2023-05-19T06:21:10.119Z,80.27
2023-05-19T06:22:12.230Z,80.14
2023-05-19T06:23:14.462Z,79.39
2023-05-19T06:24:16.121Z,79.06
2023-05-19T06:25:17.976Z,79.32
2023-05-19T06:26:19.842Z,79.03
2023-05-19T06:27:21.690Z,78.53
2023-05-19T06:28:23.561Z,78.50
2023-05-19T06:29:26.899Z,77.87
2023-05-19T06:30:30.745Z,78.27
2023-05-19T06:31:52.028Z,77.84
2023-05-19T06:32:54.498Z,77.99
2023-05-19T06:33:56.356Z,77.87
2023-05-19T06:34:58.592Z,77.46
2023-05-19T06:36:00.610Z,77.32
2023-05-19T06:37:03.858Z,77.31
2023-05-19T06:38:06.677Z,77.59
2023-05-19T06:39:08.652Z,77.40
2023-05-19T06:40:11.645Z,77.42
2023-05-19T06:41:14.734Z,76.99
2023-05-19T06:42:16.845Z,77.18
2023-05-19T06:43:38.809Z,77.48
2023-05-19T06:44:40.654Z,76.88
2023-05-19T06:45:46.183Z,76.78
2023-05-19T06:46:47.929Z,76.49
2023-05-19T06:47:49.864Z,77.17
2023-05-19T06:48:52.023Z,76.62
2023-05-19T06:49:57.521Z,76.48
2023-05-19T06:51:02.564Z,76.43
2023-05-19T06:52:06.138Z,76.51
2023-05-19T06:53:07.804Z,76.15
2023-05-19T06:54:15.946Z,76.26
2023-05-19T06:55:17.659Z,75.81
2023-05-19T06:56:19.727Z,75.49
2023-05-19T06:57:21.758Z,74.96
2023-05-19T06:58:24.636Z,74.88
2023-05-19T06:59:26.390Z,74.51
2023-05-19T07:00:30.350Z,74.39
2023-05-19T07:01:32.591Z,74.51
2023-05-19T07:02:34.865Z,74.31
2023-05-19T07:03:40.092Z,74.11
2023-05-19T07:04:44.012Z,73.19
2023-05-19T07:05:48.931Z,73.14
2023-05-19T07:06:50.675Z,73.49
2023-05-19T07:07:52.753Z,73.09
2023-05-19T07:08:59.008Z,72.96
2023-05-19T07:10:01.322Z,73.07
2023-05-19T07:11:04.614Z,72.68
2023-05-19T07:12:06.431Z,72.35
2023-05-19T07:13:08.575Z,71.55
2023-05-19T07:14:11.165Z,71.54
2023-05-19T07:15:12.915Z,71.74
2023-05-19T07:16:14.849Z,71.47
2023-05-19T07:17:16.809Z,70.94
2023-05-19T07:18:20.127Z,71.04
2023-05-19T07:19:22.753Z,70.37
2023-05-19T07:20:25.094Z,70.02
2023-05-19T07:21:26.857Z,69.52
2023-05-19T07:22:30.098Z,69.66
2023-05-19T07:23:31.720Z,69.05
2023-05-19T07:24:33.669Z,69.29
2023-05-19T07:25:35.278Z,69.40
2023-05-19T07:26:37.824Z,69.36
2023-05-19T07:27:39.735Z,69.01
2023-05-19T07:28:42.798Z,68.54
2023-05-19T07:29:44.726Z,67.96
2023-05-19T07:30:46.368Z,68.27
2023-05-19T07:31:48.193Z,68.38
2023-05-19T07:32:49.872Z,68.65
2023-05-19T07:33:54.275Z,68.90
2023-05-19T07:34:56.302Z,68.69
2023-05-19T07:35:57.865Z,68.60
2023-05-19T07:37:00.291Z,68.82
2023-05-19T07:38:02.449Z,68.65
2023-05-19T07:39:04.583Z,68.77
2023-05-19T07:40:09.982Z,68.39
2023-05-19T07:41:11.623Z,67.72
2023-05-19T07:42:13.895Z,67.38
2023-05-19T07:43:15.574Z,67.91
2023-05-19T07:44:17.367Z,67.69
2023-05-19T07:45:19.025Z,68.27
2023-05-19T07:46:21.948Z,68.22
2023-05-19T07:47:24.525Z,68.11
2023-05-19T07:48:26.257Z,67.54
2023-05-19T07:49:27.847Z,67.48
2023-05-19T07:50:29.912Z,67.48
2023-05-19T07:51:31.789Z,67.43
2023-05-19T07:52:35.768Z,67.30
2023-05-19T07:53:37.640Z,67.47
2023-05-19T07:54:39.644Z,67.53
2023-05-19T07:55:41.280Z,67.37
2023-05-19T07:56:42.938Z,67.46
2023-05-19T07:57:44.859Z,67.65
2023-05-19T07:58:46.505Z,66.81
2023-05-19T07:59:48.206Z,66.55
2023-05-19T08:00:50.066Z,66.29
2023-05-19T08:01:52.109Z,66.39
2023-05-19T08:02:54.146Z,66.45
2023-05-19T08:03:56.740Z,66.62
2023-05-19T08:04:58.802Z,66.80
2023-05-19T08:06:00.482Z,66.17
2023-05-19T08:07:02.220Z,66.07
2023-05-19T08:08:04.332Z,65.89
2023-05-19T08:09:06.137Z,65.12
2023-05-19T08:10:08.060Z,65.16
2023-05-19T08:11:09.864Z,64.97
2023-05-19T08:12:11.478Z,65.09
2023-05-19T08:13:13.475Z,64.62
2023-05-19T08:14:15.252Z,64.84
2023-05-19T08:15:16.853Z,65.00
2023-05-19T08:16:18.941Z,64.54
2023-05-19T08:17:20.767Z,63.71
2023-05-19T08:18:22.526Z,63.97
2023-05-19T08:19:24.227Z,64.34
2023-05-19T08:20:25.897Z,64.05
2023-05-19T08:21:27.593Z,64.61
2023-05-19T08:22:29.383Z,64.67
2023-05-19T08:23:30.997Z,64.37
2023-05-19T08:24:35.457Z,63.74
2023-05-19T08:25:37.767Z,63.70
2023-05-19T08:26:39.742Z,62.74
2023-05-19T08:27:41.547Z,63.40
2023-05-19T08:28:44.273Z,62.72
2023-05-19T08:29:45.992Z,61.91
2023-05-19T08:30:47.553Z,62.09
2023-05-19T08:31:49.550Z,62.57
2023-05-19T08:32:51.345Z,62.73
2023-05-19T08:33:53.108Z,62.86
2023-05-19T08:34:54.781Z,63.38
2023-05-19T08:35:58.584Z,62.50
2023-05-19T08:37:00.276Z,63.02
2023-05-19T08:38:01.899Z,63.21
2023-05-19T08:39:04.066Z,62.98
2023-05-19T08:40:06.382Z,63.30
2023-05-19T08:41:08.477Z,62.98
2023-05-19T08:42:10.224Z,63.12
2023-05-19T08:43:12.869Z,62.32
2023-05-19T08:44:16.592Z,62.51
2023-05-19T08:45:20.694Z,62.56
2023-05-19T08:46:27.471Z,61.98
2023-05-19T08:47:29.668Z,61.81
2023-05-19T08:48:32.852Z,61.86
2023-05-19T08:49:53.479Z,61.27
2023-05-19T08:51:09.030Z,60.89
2023-05-19T08:52:35.896Z,61.73
2023-05-19T08:53:51.161Z,62.34
2023-05-19T08:55:04.878Z,62.01
2023-05-19T08:56:12.372Z,61.45
2023-05-19T08:57:14.435Z,61.45
2023-05-19T08:58:20.358Z,60.92
2023-05-19T08:59:22.859Z,60.68
2023-05-19T09:00:26.530Z,61.44
2023-05-19T09:01:30.778Z,61.52
2023-05-19T09:02:36.825Z,60.84
2023-05-19T09:03:39.910Z,60.61
2023-05-19T09:04:46.229Z,60.89
2023-05-19T09:05:48.861Z,61.88
2023-05-19T09:06:51.521Z,62.09
2023-05-19T09:07:53.506Z,62.51
2023-05-19T09:08:55.385Z,62.01
2023-05-19T09:09:57.051Z,62.21
2023-05-19T09:10:59.605Z,61.91
2023-05-19T09:12:01.442Z,61.39
2023-05-19T09:13:03.117Z,61.29
2023-05-19T09:14:05.883Z,61.15
2023-05-19T09:15:10.297Z,60.44
2023-05-19T09:16:12.461Z,61.08
2023-05-19T09:17:15.787Z,61.26
2023-05-19T09:18:17.805Z,60.46
2023-05-19T09:19:21.380Z,60.43
2023-05-19T09:20:23.214Z,60.53
2023-05-19T09:21:31.642Z,60.33
2023-05-19T09:22:37.112Z,61.00
2023-05-19T09:23:39.026Z,59.94
2023-05-19T09:24:41.380Z,59.27
2023-05-19T09:25:53.888Z,58.04
2023-05-19T09:27:00.425Z,57.36
2023-05-19T09:28:02.506Z,58.77
2023-05-19T09:29:17.745Z,58.34
2023-05-19T09:30:20.487Z,58.35
2023-05-19T09:31:22.613Z,59.03
2023-05-19T09:32:26.754Z,58.44
2023-05-19T09:33:30.046Z,58.72
2023-05-19T09:34:32.323Z,58.48
2023-05-19T09:35:35.315Z,58.04
2023-05-19T09:36:39.983Z,57.63
2023-05-19T09:37:42.090Z,57.35
2023-05-19T09:38:45.584Z,57.80
2023-05-19T09:39:51.959Z,56.23
2023-05-19T09:40:57.691Z,57.20
2023-05-19T09:41:59.550Z,56.62
2023-05-19T09:43:05.426Z,55.88
2023-05-19T09:44:07.919Z,56.78
2023-05-19T09:45:09.985Z,55.65
2023-05-19T09:46:13.797Z,55.25
2023-05-19T09:47:16.882Z,55.37
2023-05-19T09:48:21.612Z,56.25
2023-05-19T09:49:31.267Z,54.71
2023-05-19T09:50:34.083Z,55.30
2023-05-19T09:51:41.797Z,55.08
2023-05-19T09:52:44.664Z,54.83
2023-05-19T09:53:46.610Z,54.46
2023-05-19T09:54:49.293Z,55.40
2023-05-19T09:55:55.446Z,55.78
2023-05-19T09:56:59.088Z,56.72
2023-05-19T09:58:04.042Z,56.58
2023-05-19T09:59:07.463Z,56.38
2023-05-19T10:00:19.949Z,55.25
2023-05-19T10:01:22.449Z,55.60
2023-05-19T10:02:26.195Z,56.11
2023-05-19T10:03:28.695Z,55.72
2023-05-19T10:04:31.602Z,56.38
2023-05-19T10:05:34.481Z,55.79
2023-05-19T10:06:37.039Z,56.11
2023-05-19T10:07:40.823Z,55.11
2023-05-19T10:08:44.286Z,55.70
2023-05-19T10:09:47.421Z,56.34
2023-05-19T10:10:49.674Z,56.34
2023-05-19T10:11:55.768Z,56.74
2023-05-19T10:13:00.343Z,56.48
2023-05-19T10:14:02.260Z,56.87
2023-05-19T10:15:05.723Z,57.46
2023-05-19T10:16:10.042Z,57.05
2023-05-19T10:17:13.026Z,57.21
2023-05-19T10:18:18.228Z,56.24
2023-05-19T10:19:27.864Z,56.60
2023-05-19T10:20:31.568Z,57.35
2023-05-19T10:21:33.616Z,57.13
2023-05-19T10:22:35.493Z,55.71
2023-05-19T10:23:38.138Z,56.71
2023-05-19T10:24:40.436Z,55.67
2023-05-19T10:25:42.889Z,55.69
2023-05-19T10:26:48.024Z,56.27
2023-05-19T10:28:14.724Z,56.32
2023-05-19T10:29:21.219Z,56.03
2023-05-19T10:30:35.849Z,55.91
2023-05-19T10:31:42.751Z,55.81
2023-05-19T10:32:46.738Z,55.27
2023-05-19T10:34:02.869Z,53.69
2023-05-19T10:35:08.522Z,54.86
2023-05-19T10:36:24.989Z,54.10
2023-05-19T10:37:41.909Z,55.16
2023-05-19T10:39:01.864Z,54.80
2023-05-19T10:40:21.912Z,55.14
2023-05-19T10:41:46.416Z,55.74
2023-05-19T10:43:14.198Z,54.66
2023-05-19T10:44:23.798Z,55.51
2023-05-19T10:45:29.390Z,55.07
2023-05-19T10:46:31.715Z,55.16
2023-05-19T10:47:35.004Z,54.66
2023-05-19T10:48:37.490Z,54.27
2023-05-19T10:49:39.972Z,54.62
2023-05-19T10:50:44.838Z,54.82
2023-05-19T10:51:46.818Z,53.63
2023-05-19T10:52:57.972Z,53.89
2023-05-19T10:54:06.221Z,53.86
2023-05-19T10:55:10.073Z,54.44
2023-05-19T10:56:12.557Z,54.70
2023-05-19T10:57:16.201Z,54.87
2023-05-19T10:58:36.387Z,53.67
2023-05-19T10:59:39.524Z,53.99
2023-05-19T11:00:44.545Z,54.18
2023-05-19T11:01:47.035Z,55.30
2023-05-19T11:02:55.925Z,55.66
2023-05-19T11:03:57.699Z,54.89
2023-05-19T11:05:18.545Z,53.81
2023-05-19T11:06:27.479Z,54.40
2023-05-19T11:07:29.830Z,52.52
2023-05-19T11:08:33.446Z,52.65
2023-05-19T11:09:41.057Z,52.56
2023-05-19T11:10:46.429Z,53.14
2023-05-19T11:11:54.910Z,53.74
2023-05-19T11:13:00.522Z,53.33
2023-05-19T11:14:02.128Z,53.65
2023-05-19T11:15:04.333Z,53.87
2023-05-19T11:16:09.961Z,53.55
2023-05-19T11:17:15.822Z,53.13
2023-05-19T11:18:20.305Z,53.72
2023-05-19T11:19:37.406Z,53.25
2023-05-19T11:20:39.701Z,52.00
2023-05-19T11:21:52.708Z,51.29
2023-05-19T11:23:06.980Z,52.31
2023-05-19T11:24:09.793Z,52.40
2023-05-19T11:25:11.431Z,52.07
2023-05-19T11:26:13.756Z,52.00
2023-05-19T11:27:28.552Z,52.03
2023-05-19T11:28:30.889Z,52.80
2023-05-19T11:29:34.240Z,53.30
2023-05-19T11:30:36.876Z,50.51
2023-05-19T11:31:39.785Z,51.60
2023-05-19T11:32:42.884Z,51.23
2023-05-19T11:33:45.277Z,52.32
2023-05-19T11:34:48.574Z,52.84
2023-05-19T11:35:51.171Z,51.58
2023-05-19T11:36:53.030Z,51.26
2023-05-19T11:37:54.876Z,52.34
2023-05-19T11:38:57.613Z,52.10
2023-05-19T11:40:02.546Z,51.83
2023-05-19T11:41:04.546Z,50.91
2023-05-19T11:42:10.596Z,51.23
2023-05-19T11:43:12.599Z,51.88
2023-05-19T11:44:14.268Z,50.85
2023-05-19T11:45:16.196Z,51.33
2023-05-19T11:46:18.256Z,50.58
2023-05-19T11:47:21.082Z,51.39
2023-05-19T11:48:23.030Z,51.30
2023-05-19T11:49:24.929Z,51.73
2023-05-19T11:50:27.597Z,51.70
2023-05-19T11:51:29.493Z,51.51
2023-05-19T11:52:31.194Z,50.98
2023-05-19T11:53:36.167Z,51.53
2023-05-19T11:54:39.663Z,51.17
2023-05-19T11:55:49.384Z,51.05
2023-05-19T11:56:51.534Z,50.46
2023-05-19T11:58:04.066Z,51.81
2023-05-19T11:59:06.854Z,51.96
2023-05-19T12:00:09.316Z,50.86
2023-05-19T12:01:11.130Z,51.47
2023-05-19T12:02:16.100Z,51.93
2023-05-19T12:03:21.794Z,51.28
2023-05-19T12:04:23.814Z,50.07
2023-05-19T12:05:26.588Z,50.74
2023-05-19T12:06:29.865Z,51.16
2023-05-19T12:07:31.872Z,49.11
2023-05-19T12:08:34.839Z,50.73
2023-05-19T12:09:36.991Z,50.81
2023-05-19T12:10:39.812Z,50.43
2023-05-19T12:11:41.519Z,49.88
2023-05-19T12:12:45.176Z,50.34
2023-05-19T12:13:47.847Z,50.04
2023-05-19T12:14:54.054Z,49.51
2023-05-19T12:16:00.431Z,49.65
2023-05-19T12:17:16.554Z,48.37
2023-05-19T12:18:20.007Z,48.97
2023-05-19T12:19:25.838Z,49.74
2023-05-19T12:20:29.714Z,49.67
2023-05-19T12:21:34.166Z,50.06
2023-05-19T12:22:36.833Z,50.04
2023-05-19T12:23:39.095Z,49.67
2023-05-19T12:24:42.674Z,49.60
2023-05-19T12:25:44.776Z,49.57
2023-05-19T12:26:47.138Z,49.90
2023-05-19T12:27:49.663Z,49.75
2023-05-19T12:28:52.669Z,48.23
2023-05-19T12:29:55.825Z,49.67
2023-05-19T12:30:58.877Z,48.64
2023-05-19T12:32:01.421Z,48.82
2023-05-19T12:33:03.503Z,49.18
2023-05-19T12:34:05.395Z,50.42
2023-05-19T12:35:07.512Z,49.62
2023-05-19T12:36:10.299Z,50.00
2023-05-19T12:37:12.082Z,50.05
2023-05-19T12:38:15.748Z,48.52
2023-05-19T12:39:18.042Z,48.40
2023-05-19T12:40:21.295Z,49.42
2023-05-19T12:41:25.126Z,49.48
2023-05-19T12:42:31.757Z,48.94
2023-05-19T12:43:33.648Z,49.09
2023-05-19T12:44:55.473Z,49.14
2023-05-19T12:45:57.264Z,49.98
2023-05-19T12:46:59.631Z,49.88
2023-05-19T12:48:04.611Z,49.49
2023-05-19T12:49:06.260Z,49.92
2023-05-19T12:50:09.966Z,49.77
2023-05-19T12:51:19.271Z,50.24
2023-05-19T12:52:23.582Z,50.34
2023-05-19T12:53:27.821Z,50.19
2023-05-19T12:54:34.243Z,51.20
2023-05-19T12:55:43.580Z,50.65
2023-05-19T12:56:52.373Z,49.33
2023-05-19T12:57:56.889Z,49.92
2023-05-19T12:59:00.937Z,50.60
2023-05-19T13:00:22.846Z,48.86
2023-05-19T13:01:24.792Z,49.38
2023-05-19T13:02:26.627Z,49.07
2023-05-19T13:03:28.670Z,48.91
2023-05-19T13:04:30.541Z,48.75
2023-05-19T13:05:43.762Z,49.51
2023-05-19T13:06:47.409Z,49.03
2023-05-19T13:08:05.303Z,49.68
2023-05-19T13:09:07.417Z,49.83
2023-05-19T13:10:09.473Z,49.21
2023-05-19T13:11:11.745Z,49.90
2023-05-19T13:12:13.678Z,50.31
2023-05-19T13:13:16.444Z,48.10
2023-05-19T13:14:18.805Z,49.15
2023-05-19T13:15:22.294Z,49.20
2023-05-19T13:16:24.155Z,49.52
2023-05-19T13:17:26.676Z,49.63
2023-05-19T13:18:31.949Z,50.34
2023-05-19T13:19:33.931Z,50.22
2023-05-19T13:20:40.878Z,50.76
2023-05-19T13:21:42.610Z,50.17
2023-05-19T13:22:44.713Z,49.91
2023-05-19T13:23:46.286Z,50.24
2023-05-19T13:24:48.408Z,50.72
2023-05-19T13:25:51.473Z,49.81
2023-05-19T13:26:56.192Z,49.73
2023-05-19T13:28:01.115Z,49.69
2023-05-19T13:29:03.238Z,49.72
2023-05-19T13:30:05.641Z,50.58
2023-05-19T13:31:07.442Z,50.72
2023-05-19T13:32:09.245Z,51.06
2023-05-19T13:33:11.999Z,50.22
2023-05-19T13:34:13.940Z,50.07
2023-05-19T13:35:16.013Z,49.16
2023-05-19T13:36:17.627Z,50.08
2023-05-19T13:37:19.789Z,50.58
2023-05-19T13:38:21.524Z,50.45
2023-05-19T13:39:23.388Z,49.96
2023-05-19T13:40:26.022Z,49.29
2023-05-19T13:41:30.275Z,49.78
2023-05-19T13:42:33.592Z,49.69
2023-05-19T13:43:35.371Z,49.68
2023-05-19T13:44:37.397Z,49.16
2023-05-19T13:45:39.364Z,49.64
2023-05-19T13:46:45.402Z,49.07
2023-05-19T13:47:48.711Z,49.18
2023-05-19T13:48:50.303Z,49.12